Time;durP1;ratioP1;P1;durP2;ratioP2;P2;SDS_P1;SDS_P2;PMS_P1;PMS_P2;Temp;Humidity;BMP_temperature;BMP_pressure;BME280_temperature;BME280_humidity;BME280_pressure;Samples;Min_cycle;Max_cycle;Signal;HPM_P1;HPM_P2
2022/04/30 00:01:22;;;;;;;1.20;0.50;;;8.40;70.00;;;;;;5001019;28;20037;-85
2022/04/30 00:03:51;;;;;;;1.40;0.40;;;8.30;70.10;;;;;;5016973;28;20053;-84
2022/04/30 00:06:23;;;;;;;0.77;0.30;;;8.20;70.20;;;;;;4999467;28;20045;-83
2022/04/30 00:08:50;;;;;;;1.52;0.60;;;8.20;70.30;;;;;;5017119;28;20154;-84
2022/04/30 00:11:21;;;;;;;1.83;0.60;;;8.20;70.50;;;;;;5001015;28;20048;-84
2022/04/30 00:13:51;;;;;;;1.52;0.40;;;8.10;70.60;;;;;;5016868;28;20041;-84
2022/04/30 00:16:18;;;;;;;1.33;0.50;;;8.10;70.60;;;;;;5016363;28;20045;-84
2022/04/30 00:18:46;;;;;;;2.15;0.50;;;8.10;70.70;;;;;;4997015;28;20042;-83
2022/04/30 00:21:15;;;;;;;1.13;0.52;;;8.10;70.90;;;;;;5015033;28;20137;-83
2022/04/30 00:23:43;;;;;;;1.00;0.50;;;8.10;70.90;;;;;;5017019;28;20029;-83
2022/04/30 00:26:10;;;;;;;2.42;0.40;;;8.10;71.10;;;;;;5000035;28;20084;-83
2022/04/30 00:28:37;;;;;;;1.73;0.50;;;8.00;71.10;;;;;;5000362;28;20058;-84
2022/04/30 00:31:07;;;;;;;2.35;0.50;;;8.00;71.20;;;;;;4998295;28;20513;-84
2022/04/30 00:33:37;;;;;;;0.77;0.35;;;8.00;71.30;;;;;;5000558;28;20049;-83
2022/04/30 00:36:04;;;;;;;1.10;0.40;;;7.90;71.30;;;;;;4983111;28;20053;-84
2022/04/30 00:38:34;;;;;;;1.40;0.40;;;7.90;71.40;;;;;;5015266;28;20042;-83
2022/04/30 00:41:02;;;;;;;0.98;0.40;;;7.90;71.60;;;;;;4998462;28;20103;-83
2022/04/30 00:43:29;;;;;;;1.38;0.40;;;7.80;71.60;;;;;;4998478;28;20096;-83
2022/04/30 00:45:59;;;;;;;1.25;0.60;;;7.80;71.70;;;;;;4998860;28;20095;-83
2022/04/30 00:48:28;;;;;;;1.20;0.55;;;7.80;71.90;;;;;;5014515;28;20048;-83
2022/04/30 00:50:56;;;;;;;1.77;0.55;;;7.70;71.90;;;;;;5014871;28;20136;-84
2022/04/30 00:53:24;;;;;;;2.08;0.70;;;7.70;72.00;;;;;;5014956;28;20049;-83
2022/04/30 00:55:51;;;;;;;1.45;0.60;;;7.70;72.10;;;;;;4998693;28;20049;-83
2022/04/30 00:58:21;;;;;;;2.20;0.98;;;7.70;72.20;;;;;;5030923;28;20548;-83
2022/04/30 01:00:51;;;;;;;1.73;0.55;;;7.70;72.20;;;;;;4997936;28;20042;-83
2022/04/30 01:03:36;;;;;;;2.08;0.80;;;7.70;72.40;;;;;;5014714;28;20125;-84
2022/04/30 01:06:06;;;;;;;3.75;1.13;;;7.60;72.50;;;;;;5041440;28;20045;-84
2022/04/30 01:08:33;;;;;;;1.73;0.60;;;7.60;72.60;;;;;;5010475;28;20104;-84
2022/04/30 01:11:06;;;;;;;2.45;0.70;;;7.60;72.60;;;;;;4998432;28;20049;-84
2022/04/30 01:13:36;;;;;;;3.20;0.82;;;7.60;72.80;;;;;;4999408;28;20046;-84
2022/04/30 01:16:05;;;;;;;2.35;0.90;;;7.50;72.90;;;;;;4998196;28;20095;-84
2022/04/30 01:18:35;;;;;;;1.85;0.80;;;7.60;72.90;;;;;;5030962;28;20124;-84
2022/04/30 01:21:10;;;;;;;2.47;1.08;;;7.50;73.00;;;;;;5012647;28;20044;-83
2022/04/30 01:23:40;;;;;;;2.47;1.00;;;7.60;73.10;;;;;;4992191;28;20491;-84
2022/04/30 01:26:17;;;;;;;;;;;7.50;73.00;;;;;;5016874;28;20532;-84
2022/04/30 01:28:46;;;;;;;2.25;0.77;;;7.50;73.00;;;;;;5015810;28;19921;-83
2022/04/30 01:39:33;;;;;;;2.10;0.75;;;7.40;73.40;;;;;;5032987;28;20030;-83
2022/04/30 01:42:11;;;;;;;3.35;0.90;;;7.40;73.50;;;;;;5015255;28;20151;-83
2022/04/30 01:44:46;;;;;;;2.13;0.45;;;7.40;73.60;;;;;;4998545;28;20045;-84
2022/04/30 01:47:18;;;;;;;1.63;0.82;;;7.30;73.70;;;;;;5027977;28;20132;-83
2022/04/30 01:49:45;;;;;;;2.00;0.70;;;7.30;73.80;;;;;;4997078;28;20037;-83
2022/04/30 01:52:13;;;;;;;1.58;0.57;;;7.30;73.90;;;;;;5013573;28;20037;-85
2022/04/30 01:54:43;;;;;;;2.80;1.10;;;7.30;74.00;;;;;;4994838;28;20092;-83
2022/04/30 01:57:12;;;;;;;3.10;0.77;;;7.30;74.10;;;;;;5030511;28;20096;-83
2022/04/30 01:59:45;;;;;;;3.90;1.10;;;7.30;74.20;;;;;;5046475;28;20041;-84
2022/04/30 02:02:34;;;;;;;3.00;0.98;;;7.30;74.20;;;;;;5014724;28;20037;-84
2022/04/30 02:05:07;;;;;;;2.90;1.38;;;7.30;74.30;;;;;;5003916;28;20038;-83
2022/04/30 02:07:57;;;;;;;2.75;1.08;;;7.30;74.40;;;;;;5027860;28;20470;-83
2022/04/30 02:10:27;;;;;;;1.38;0.73;;;7.30;74.40;;;;;;4993729;28;20462;-84
2022/04/30 02:12:55;;;;;;;3.42;1.00;;;7.20;74.40;;;;;;5013961;28;20053;-84
2022/04/30 02:15:23;;;;;;;2.75;1.02;;;7.20;74.50;;;;;;5014953;28;20072;-83
2022/04/30 02:17:51;;;;;;;3.10;1.38;;;7.20;74.60;;;;;;5007384;28;20041;-84
2022/04/30 02:20:23;;;;;;;2.10;0.80;;;7.20;74.70;;;;;;4998214;28;20053;-83
2022/04/30 02:22:54;;;;;;;3.35;1.20;;;7.20;74.70;;;;;;4997822;28;20148;-83
2022/04/30 02:25:22;;;;;;;2.63;0.90;;;7.20;74.90;;;;;;4998194;28;20111;-83
2022/04/30 02:27:51;;;;;;;2.95;1.20;;;7.20;74.80;;;;;;5014262;28;20053;-84
2022/04/30 02:30:23;;;;;;;3.80;1.30;;;7.20;75.00;;;;;;4998197;28;20152;-84
2022/04/30 02:32:54;;;;;;;3.05;1.02;;;7.20;75.00;;;;;;4998090;28;20528;-84
2022/04/30 02:35:26;;;;;;;3.35;1.42;;;7.20;75.10;;;;;;5014815;28;20058;-84
2022/04/30 02:37:56;;;;;;;2.50;1.10;;;7.20;75.20;;;;;;5026840;28;20136;-84
2022/04/30 02:40:24;;;;;;;3.90;1.08;;;7.10;75.20;;;;;;4998579;28;20037;-85
2022/04/30 02:42:53;;;;;;;3.53;1.10;;;7.10;75.20;;;;;;5014552;28;20140;-84
2022/04/30 02:45:22;;;;;;;3.90;1.27;;;7.20;75.40;;;;;;4998182;28;20050;-84
2022/04/30 02:47:56;;;;;;;3.22;0.88;;;7.10;75.40;;;;;;5014315;28;20095;-84
2022/04/30 02:50:25;;;;;;;2.67;1.00;;;7.10;75.60;;;;;;4997898;28;20408;-84
2022/04/30 02:52:54;;;;;;;3.63;1.45;;;7.10;75.70;;;;;;5030685;28;20046;-84
2022/04/30 02:55:23;;;;;;;3.17;1.15;;;7.00;75.70;;;;;;5014104;28;20045;-84
2022/04/30 03:00:51;;;;;;;3.28;1.30;;;7.10;75.90;;;;;;5013248;28;20056;-84
2022/04/30 03:03:42;;;;;;;3.13;1.23;;;7.00;75.90;;;;;;5008030;28;20045;-84
2022/04/30 03:06:10;;;;;;;4.22;0.90;;;7.00;75.90;;;;;;5014260;28;20458;-83
2022/04/30 03:08:39;;;;;;;2.78;1.27;;;7.00;76.00;;;;;;5014342;28;20136;-83
2022/04/30 03:11:07;;;;;;;2.47;1.20;;;6.90;76.10;;;;;;5014142;28;20524;-83
2022/04/30 03:13:36;;;;;;;3.00;1.08;;;6.90;76.20;;;;;;4994823;28;20042;-82
2022/04/30 03:21:44;;;;;;;3.17;1.30;;;6.90;76.30;;;;;;5014018;28;20128;-83
2022/04/30 03:24:15;;;;;;;3.75;1.25;;;6.90;76.40;;;;;;4998211;28;20056;-83
2022/04/30 03:26:47;;;;;;;2.90;1.20;;;6.90;76.50;;;;;;5034812;28;20068;-82
2022/04/30 03:29:15;;;;;;;2.60;1.50;;;6.90;76.60;;;;;;5001848;28;20049;-83
2022/04/30 03:31:43;;;;;;;2.72;1.45;;;6.90;76.60;;;;;;5018141;28;20338;-83
2022/04/30 03:34:12;;;;;;;4.18;1.10;;;6.80;76.60;;;;;;5001642;28;20049;-83
2022/04/30 03:36:43;;;;;;;2.63;0.90;;;6.80;76.70;;;;;;5018202;28;20041;-83
2022/04/30 03:39:10;;;;;;;2.58;1.13;;;6.80;76.90;;;;;;5001696;28;20042;-83
2022/04/30 03:41:37;;;;;;;1.85;0.90;;;6.70;76.90;;;;;;5017485;28;20413;-83
2022/04/30 03:44:07;;;;;;;1.92;0.98;;;6.80;77.00;;;;;;5001463;28;20037;-83
2022/04/30 03:46:36;;;;;;;2.53;1.13;;;6.70;76.90;;;;;;4999523;28;20045;-84
2022/04/30 03:49:06;;;;;;;1.95;0.80;;;6.70;77.00;;;;;;5003108;28;20026;-84
2022/04/30 03:51:34;;;;;;;1.70;0.75;;;6.70;77.10;;;;;;5006222;28;20045;-85
2022/04/30 03:54:02;;;;;;;4.45;1.13;;;6.70;77.20;;;;;;5029121;28;20537;-85
2022/04/30 03:56:31;;;;;;;2.47;1.10;;;6.70;77.30;;;;;;5001252;28;20049;-85
2022/04/30 03:58:58;;;;;;;2.75;0.90;;;6.70;77.50;;;;;;5034928;28;20489;-82
2022/04/30 04:01:27;;;;;;;2.30;1.30;;;6.70;78.00;;;;;;5001194;28;20132;-83
2022/04/30 04:03:55;;;;;;;2.25;1.00;;;6.70;77.40;;;;;;5001405;28;20378;-81
2022/04/30 04:06:22;;;;;;;1.83;0.60;;;6.70;77.50;;;;;;4997402;28;20049;-82
2022/04/30 04:08:52;;;;;;;2.78;0.90;;;6.60;77.50;;;;;;5001018;28;20362;-82
2022/04/30 04:11:20;;;;;;;2.25;1.00;;;6.70;77.70;;;;;;5017269;28;20045;-83
2022/04/30 04:19:24;;;;;;;2.65;1.00;;;6.60;77.80;;;;;;5002969;28;20158;-83
2022/04/30 04:21:51;;;;;;;2.15;0.88;;;6.60;77.80;;;;;;5016908;28;20053;-83
2022/04/30 04:27:05;;;;;;;1.95;0.95;;;6.60;78.00;;;;;;5005463;28;20112;-86
2022/04/30 04:29:32;;;;;;;3.47;1.77;;;6.60;78.00;;;;;;5000455;28;20076;-86
2022/04/30 04:31:59;;;;;;;2.40;1.10;;;6.60;78.10;;;;;;5016764;28;20144;-83
2022/04/30 04:34:27;;;;;;;2.83;1.20;;;6.60;78.10;;;;;;5000646;28;20114;-82
2022/04/30 04:36:57;;;;;;;3.75;1.58;;;6.60;78.10;;;;;;5015898;28;20052;-82
2022/04/30 04:39:24;;;;;;;2.25;0.80;;;6.60;78.00;;;;;;4998933;28;20100;-82
2022/04/30 04:41:51;;;;;;;2.22;0.98;;;6.60;78.10;;;;;;4999155;28;20044;-83
2022/04/30 04:44:21;;;;;;;1.95;1.15;;;6.60;78.10;;;;;;4999836;28;20121;-85
2022/04/30 04:46:52;;;;;;;3.05;1.10;;;6.60;78.20;;;;;;5016107;28;20713;-85
2022/04/30 04:49:19;;;;;;;2.10;0.80;;;6.60;78.20;;;;;;4988726;28;20399;-85
2022/04/30 04:51:46;;;;;;;1.65;0.70;;;6.60;78.20;;;;;;5016283;28;20045;-85
2022/04/30 04:54:13;;;;;;;1.70;0.80;;;6.70;78.30;;;;;;5016488;28;20042;-85
2022/04/30 04:56:42;;;;;;;2.22;0.85;;;6.70;78.30;;;;;;5000129;28;20462;-82
2022/04/30 04:59:09;;;;;;;3.00;1.08;;;6.70;78.20;;;;;;4981121;28;20065;-82
2022/04/30 05:01:37;;;;;;;4.25;0.90;;;6.70;78.20;;;;;;5011613;28;20037;-83
2022/04/30 05:04:08;;;;;;;2.00;0.88;;;6.70;78.20;;;;;;5000037;28;20073;-82
2022/04/30 05:06:35;;;;;;;1.60;0.77;;;6.80;78.20;;;;;;4999804;28;20556;-83
2022/04/30 05:09:03;;;;;;;2.58;0.70;;;6.90;78.10;;;;;;5015698;28;20121;-83
2022/04/30 05:11:30;;;;;;;2.53;0.75;;;6.90;78.10;;;;;;4995494;28;20050;-82
2022/04/30 05:13:57;;;;;;;1.92;0.70;;;6.90;78.00;;;;;;5014175;28;20065;-82
2022/04/30 05:16:24;;;;;;;3.53;1.38;;;7.00;78.10;;;;;;4999124;28;20037;-82
2022/04/30 05:18:52;;;;;;;2.15;1.00;;;7.10;78.10;;;;;;4999376;28;20763;-85
2022/04/30 05:21:22;;;;;;;5.85;1.40;;;7.20;78.00;;;;;;4979909;28;20065;-85
2022/04/30 05:23:49;;;;;;;3.92;1.33;;;7.20;77.90;;;;;;5004568;28;20073;-85
2022/04/30 05:26:17;;;;;;;3.13;1.15;;;7.30;77.90;;;;;;4985818;28;20358;-85
2022/04/30 05:28:46;;;;;;;3.80;1.25;;;7.40;77.80;;;;;;5016269;28;20037;-83
2022/04/30 05:31:14;;;;;;;5.05;1.48;;;7.50;77.80;;;;;;4999335;28;20045;-83
2022/04/30 05:33:47;;;;;;;2.55;1.15;;;7.60;77.70;;;;;;5031700;28;20119;-82
2022/04/30 05:36:17;;;;;;;3.25;1.02;;;7.70;77.50;;;;;;4999530;28;20490;-82
2022/04/30 05:38:45;;;;;;;2.05;0.80;;;7.70;77.30;;;;;;4996685;28;20050;-83
2022/04/30 05:41:12;;;;;;;1.50;0.73;;;7.80;77.30;;;;;;4987026;28;20049;-83
2022/04/30 05:43:42;;;;;;;2.85;1.10;;;7.90;77.20;;;;;;4999711;28;20060;-82
2022/04/30 05:46:09;;;;;;;2.00;0.70;;;8.00;77.20;;;;;;4998070;28;20045;-84
2022/04/30 05:48:37;;;;;;;2.53;1.00;;;8.00;77.10;;;;;;4968682;28;20487;-82
2022/04/30 05:51:04;;;;;;;1.95;1.00;;;8.10;77.00;;;;;;5013458;28;20045;-84
2022/04/30 05:53:32;;;;;;;3.05;0.98;;;8.20;77.00;;;;;;4999099;28;20045;-83
2022/04/30 05:55:59;;;;;;;4.88;1.13;;;8.20;76.90;;;;;;4998881;28;20049;-83
2022/04/30 05:58:27;;;;;;;2.60;1.15;;;8.30;76.90;;;;;;5014978;28;20056;-83
2022/04/30 06:00:54;;;;;;;2.08;0.85;;;8.40;76.80;;;;;;4998811;28;20049;-85
2022/04/30 06:03:31;;;;;;;2.03;0.90;;;8.40;76.60;;;;;;4998862;28;20038;-85
2022/04/30 06:05:59;;;;;;;2.65;0.88;;;8.60;76.60;;;;;;4981529;28;20046;-85
2022/04/30 06:08:26;;;;;;;2.50;1.15;;;8.70;76.50;;;;;;5014862;28;20041;-85
2022/04/30 06:10:53;;;;;;;1.67;0.65;;;8.70;76.20;;;;;;5013116;28;20052;-85
2022/04/30 06:13:21;;;;;;;1.90;0.95;;;8.80;76.10;;;;;;4992667;28;20416;-85
2022/04/30 06:15:49;;;;;;;1.65;0.80;;;8.90;76.00;;;;;;5018091;28;20107;-85
2022/04/30 06:18:20;;;;;;;1.88;1.00;;;9.00;75.90;;;;;;4967637;28;20049;-83
2022/04/30 06:20:47;;;;;;;1.85;0.70;;;9.10;75.80;;;;;;4997971;28;20053;-82
2022/04/30 06:23:17;;;;;;;1.92;0.80;;;9.20;75.70;;;;;;5014624;28;20041;-84
2022/04/30 06:26:00;;;;;;;3.13;0.90;;;9.20;75.60;;;;;;5036957;28;20037;-85
2022/04/30 06:29:07;;;;;;;3.22;0.90;;;9.30;75.50;;;;;;5032178;28;20068;-82
2022/04/30 06:31:57;;;;;;;3.63;0.73;;;9.40;75.40;;;;;;5021010;28;20048;-85
2022/04/30 06:34:25;;;;;;;2.08;1.15;;;9.40;75.40;;;;;;5014178;28;20046;-84
2022/04/30 06:36:53;;;;;;;1.48;0.77;;;9.40;75.20;;;;;;4982073;28;20045;-83
2022/04/30 06:39:20;;;;;;;3.10;0.80;;;9.50;75.20;;;;;;4998325;28;20136;-83
2022/04/30 06:41:56;;;;;;;1.67;0.73;;;9.50;75.10;;;;;;4990909;28;20386;-83
2022/04/30 06:44:24;;;;;;;2.30;0.73;;;9.60;75.10;;;;;;5025690;28;20057;-82
2022/04/30 06:46:51;;;;;;;1.77;0.93;;;9.70;74.90;;;;;;4997690;28;20033;-83
2022/04/30 06:49:23;;;;;;;1.08;0.50;;;9.90;74.90;;;;;;5014265;28;20508;-83
2022/04/30 06:51:50;;;;;;;2.03;0.98;;;10.00;74.70;;;;;;4996948;28;20063;-82
2022/04/30 06:57:17;;;;;;;1.00;0.50;;;10.20;74.40;;;;;;5014121;28;20041;-83
2022/04/30 07:03:29;;;;;;;1.48;0.70;;;10.50;73.70;;;;;;5021644;28;20115;-86
2022/04/30 07:06:04;;;;;;;1.20;0.60;;;10.70;73.50;;;;;;5003001;28;20386;-86
2022/04/30 07:08:41;;;;;;;1.98;1.17;;;10.80;73.30;;;;;;5018678;28;20555;-85
2022/04/30 07:11:13;;;;;;;2.45;0.80;;;10.90;73.00;;;;;;5018679;28;20049;-85
2022/04/30 07:13:44;;;;;;;1.90;0.77;;;11.00;72.90;;;;;;5035077;28;20096;-86
2022/04/30 07:16:13;;;;;;;2.35;1.08;;;11.10;72.80;;;;;;5000337;28;20487;-85
2022/04/30 07:18:42;;;;;;;1.20;0.70;;;11.20;72.50;;;;;;5001834;28;20561;-85
2022/04/30 07:21:09;;;;;;;1.40;0.90;;;11.30;72.40;;;;;;5017853;28;20505;-85
2022/04/30 07:23:42;;;;;;;1.80;0.90;;;11.30;72.20;;;;;;5002907;28;20044;-86
2022/04/30 07:26:29;;;;;;;1.50;0.70;;;11.40;72.10;;;;;;4990330;28;20409;-85
2022/04/30 07:29:20;;;;;;;2.10;0.80;;;11.40;71.90;;;;;;5019625;28;20049;-84
2022/04/30 07:31:49;;;;;;;2.65;1.00;;;11.50;71.40;;;;;;5017857;28;20704;-82
2022/04/30 07:34:17;;;;;;;2.00;0.68;;;11.60;71.30;;;;;;5001525;28;20049;-85
2022/04/30 07:36:57;;;;;;;;;;;;;;;;;;;;;
2022/04/30 07:39:29;;;;;;;1.83;0.75;;;11.80;70.90;;;;;;5017900;28;20067;-85
2022/04/30 07:41:56;;;;;;;1.45;0.80;;;12.00;70.40;;;;;;4985406;28;20045;-84
2022/04/30 07:44:26;;;;;;;1.77;0.70;;;12.10;70.10;;;;;;4983353;28;20046;-84
2022/04/30 07:46:54;;;;;;;2.35;0.55;;;12.30;69.80;;;;;;5017085;28;20045;-84
2022/04/30 07:49:21;;;;;;;2.45;0.90;;;12.50;69.40;;;;;;5014107;28;20505;-82
2022/04/30 07:51:57;;;;;;;3.22;0.80;;;12.70;69.10;;;;;;4987595;28;20514;-84
2022/04/30 07:54:26;;;;;;;2.05;0.65;;;12.90;68.70;;;;;;5034123;28;20053;-86
2022/04/30 07:56:58;;;;;;;3.25;0.80;;;13.00;68.20;;;;;;4994144;28;20041;-83
2022/04/30 07:59:26;;;;;;;2.10;0.55;;;13.20;68.10;;;;;;5034617;28;20066;-83
2022/04/30 08:01:54;;;;;;;1.70;0.68;;;13.30;67.70;;;;;;5034963;28;20037;-83
2022/04/30 08:04:21;;;;;;;2.78;0.63;;;13.40;67.30;;;;;;5000915;28;20052;-83
2022/04/30 08:06:48;;;;;;;2.53;0.60;;;13.50;67.20;;;;;;5001372;28;20048;-84
2022/04/30 08:09:16;;;;;;;2.35;0.93;;;13.40;67.00;;;;;;5001497;28;20068;-84
2022/04/30 08:11:43;;;;;;;2.25;1.10;;;13.30;67.10;;;;;;4999924;28;20049;-86
2022/04/30 08:14:11;;;;;;;3.50;1.70;;;13.00;66.80;;;;;;5017378;28;20127;-84
2022/04/30 08:16:38;;;;;;;3.92;1.58;;;12.80;67.10;;;;;;5000580;28;20049;-83
2022/04/30 08:19:05;;;;;;;3.28;1.88;;;12.60;67.40;;;;;;5016737;28;20140;-83
2022/04/30 08:21:33;;;;;;;3.60;1.90;;;12.50;67.50;;;;;;4997174;28;20057;-83
2022/04/30 08:24:00;;;;;;;3.22;1.60;;;12.40;67.90;;;;;;5000596;28;20508;-84
2022/04/30 08:26:27;;;;;;;3.20;2.00;;;12.30;68.10;;;;;;4986898;28;20042;-85
2022/04/30 08:28:55;;;;;;;5.25;1.73;;;12.30;67.90;;;;;;5017248;28;20049;-84
2022/04/30 08:31:22;;;;;;;4.22;1.60;;;12.20;68.00;;;;;;4986773;28;20056;-84
2022/04/30 08:33:49;;;;;;;2.63;1.40;;;12.30;68.10;;;;;;5016842;28;20497;-86
2022/04/30 08:36:17;;;;;;;3.55;1.67;;;12.30;67.90;;;;;;4997397;28;20073;-86
2022/04/30 08:38:47;;;;;;;4.35;1.73;;;12.40;67.60;;;;;;5016662;28;20046;-86
2022/04/30 08:41:16;;;;;;;4.03;1.80;;;12.40;67.40;;;;;;5000781;28;20049;-83
2022/04/30 08:43:47;;;;;;;4.18;1.50;;;12.50;67.30;;;;;;4984694;28;20155;-83
2022/04/30 08:46:19;;;;;;;3.00;1.42;;;12.60;67.20;;;;;;5016390;28;20398;-83
2022/04/30 08:48:48;;;;;;;3.10;1.90;;;12.70;67.10;;;;;;5000418;28;20048;-83
2022/04/30 08:51:21;;;;;;;2.80;1.25;;;12.60;66.70;;;;;;4999983;28;20045;-83
2022/04/30 08:53:48;;;;;;;4.20;1.52;;;12.70;66.70;;;;;;5016111;28;20049;-84
2022/04/30 08:56:20;;;;;;;3.53;1.63;;;12.70;66.80;;;;;;5015881;28;20045;-83
2022/04/30 08:58:50;;;;;;;3.67;1.30;;;12.70;66.70;;;;;;5000020;28;20041;-81
2022/04/30 09:01:21;;;;;;;5.05;1.67;;;12.70;66.60;;;;;;5015856;28;20397;-82
2022/04/30 09:03:48;;;;;;;4.78;1.50;;;12.80;66.50;;;;;;5000600;28;20072;-82
2022/04/30 09:06:22;;;;;;;4.18;1.80;;;12.80;66.20;;;;;;5016247;28;20045;-82
2022/04/30 09:08:51;;;;;;;4.18;2.08;;;12.80;66.40;;;;;;5016520;28;20037;-82
2022/04/30 09:11:27;;;;;;;3.00;1.88;;;12.90;65.80;;;;;;5014771;28;20033;-84
2022/04/30 09:13:54;;;;;;;2.85;1.30;;;13.00;65.50;;;;;;5008584;28;20397;-83
2022/04/30 09:16:22;;;;;;;2.55;1.50;;;13.00;65.50;;;;;;4999214;28;20049;-82
2022/04/30 09:18:52;;;;;;;3.78;1.33;;;13.10;65.30;;;;;;5015718;28;20131;-82
2022/04/30 09:21:20;;;;;;;3.72;1.10;;;13.10;65.30;;;;;;5018092;28;20049;-82
2022/04/30 09:23:48;;;;;;;3.45;0.90;;;13.20;65.30;;;;;;4995433;28;20132;-82
2022/04/30 09:26:21;;;;;;;2.72;1.30;;;13.30;65.10;;;;;;5015500;28;20498;-84
2022/04/30 09:28:51;;;;;;;5.13;2.00;;;13.20;64.60;;;;;;5015565;28;20041;-82
2022/04/30 09:31:21;;;;;;;3.47;1.40;;;13.10;64.30;;;;;;5000576;28;20133;-82
2022/04/30 09:33:51;;;;;;;2.75;0.98;;;13.10;64.70;;;;;;4993626;28;20414;-83
2022/04/30 09:39:18;;;;;;;1.75;0.90;;;13.70;64.10;;;;;;5014766;28;20103;-82
2022/04/30 09:41:47;;;;;;;3.47;1.13;;;14.00;63.30;;;;;;4998792;28;20038;-82
2022/04/30 09:44:17;;;;;;;10.27;1.60;;;14.00;63.10;;;;;;4983312;28;20042;-85
2022/04/30 09:46:44;;;;;;;3.78;1.27;;;14.00;63.00;;;;;;5015251;28;20828;-84
2022/04/30 09:54:46;;;;;;;3.88;1.58;;;13.60;62.90;;;;;;5018529;28;20076;-85
2022/04/30 09:57:17;;;;;;;3.35;1.33;;;13.40;63.30;;;;;;5032865;28;20041;-82
2022/04/30 09:59:51;;;;;;;1.73;1.00;;;13.40;63.60;;;;;;4997273;28;20137;-82
2022/04/30 10:02:19;;;;;;;4.07;1.52;;;13.40;63.50;;;;;;4998928;28;20208;-82
2022/04/30 10:04:50;;;;;;;3.83;2.13;;;13.50;63.50;;;;;;5014945;28;20128;-82
2022/04/30 10:07:19;;;;;;;3.10;1.63;;;13.50;62.60;;;;;;5014902;28;20417;-81
2022/04/30 10:10:15;;;;;;;4.10;1.60;;;13.40;62.90;;;;;;5014811;28;20034;-82
2022/04/30 10:12:55;;;;;;;4.05;1.50;;;13.50;62.90;;;;;;4998376;28;20049;-83
2022/04/30 10:15:37;;;;;;;2.88;1.45;;;13.30;62.70;;;;;;5015241;28;20233;-82
2022/04/30 10:18:08;;;;;;;4.03;2.50;;;13.10;62.80;;;;;;5014834;28;20831;-83
2022/04/30 10:20:37;;;;;;;;;;;12.90;63.00;;;;;;4999296;28;20389;-84
2022/04/30 10:23:07;;;;;;;2.95;1.48;;;12.70;63.40;;;;;;5015402;28;19925;-84
2022/04/30 10:25:35;;;;;;;3.00;1.65;;;12.60;63.60;;;;;;5015198;28;20107;-85
2022/04/30 10:28:23;;;;;;;2.78;1.42;;;12.50;63.70;;;;;;5014668;28;20573;-84
2022/04/30 10:31:11;;;;;;;3.80;1.70;;;12.40;63.90;;;;;;4993856;28;20516;-83
2022/04/30 10:33:51;;;;;;;3.22;1.50;;;12.30;64.00;;;;;;5001808;28;20490;-84
2022/04/30 10:36:20;;;;;;;2.33;1.10;;;12.30;64.10;;;;;;5012861;28;20049;-82
2022/04/30 10:39:04;;;;;;;3.47;1.65;;;12.30;64.10;;;;;;5014563;28;20052;-83
2022/04/30 10:41:45;;;;;;;1.88;1.20;;;12.30;64.20;;;;;;4994339;28;20144;-83
2022/04/30 10:44:30;;;;;;;2.10;1.10;;;12.30;64.20;;;;;;5007915;28;20041;-83
2022/04/30 10:47:13;;;;;;;3.00;1.75;;;12.30;64.20;;;;;;5013921;28;20029;-84
2022/04/30 10:49:49;;;;;;;2.60;0.90;;;12.40;64.30;;;;;;5013891;28;20076;-87
2022/04/30 10:52:22;;;;;;;2.63;1.40;;;12.40;64.20;;;;;;4998513;28;20049;-85
2022/04/30 10:54:50;;;;;;;3.03;1.55;;;12.50;64.30;;;;;;4998293;28;20045;-83
2022/04/30 10:57:20;;;;;;;3.10;1.40;;;12.50;64.20;;;;;;5032267;28;20468;-85
2022/04/30 11:00:02;;;;;;;2.55;1.08;;;12.50;64.10;;;;;;5014486;28;20058;-85
2022/04/30 11:02:31;;;;;;;3.40;1.42;;;12.50;64.00;;;;;;5014339;28;20382;-84
2022/04/30 11:05:24;;;;;;;2.88;0.90;;;12.60;64.00;;;;;;5014514;28;20065;-82
2022/04/30 11:07:52;;;;;;;2.20;1.20;;;12.70;63.90;;;;;;5015046;28;20045;-84
2022/04/30 11:10:19;;;;;;;3.08;0.93;;;12.80;63.70;;;;;;5014047;28;20115;-83
2022/04/30 11:13:07;;;;;;;3.08;1.10;;;12.90;63.50;;;;;;4996675;28;20048;-82
2022/04/30 11:15:34;;;;;;;3.10;1.05;;;13.10;63.30;;;;;;4995270;28;20070;-81
2022/04/30 11:18:01;;;;;;;2.17;1.35;;;13.20;63.20;;;;;;4998078;28;20548;-81
2022/04/30 11:20:28;;;;;;;4.05;1.58;;;13.20;63.00;;;;;;4998265;28;20413;-82
2022/04/30 11:22:57;;;;;;;11.80;2.25;;;13.20;62.90;;;;;;4978417;28;20413;-84
2022/04/30 11:25:39;;;;;;;9.80;1.95;;;13.30;62.90;;;;;;4998519;28;20079;-83
2022/04/30 11:28:12;;;;;;;5.68;1.60;;;13.40;62.50;;;;;;4998064;28;20036;-82
2022/04/30 11:30:42;;;;;;;2.58;1.67;;;13.50;62.30;;;;;;5008185;28;20045;-83
2022/04/30 11:33:10;;;;;;;3.20;1.77;;;13.60;61.90;;;;;;5014252;28;20503;-83
2022/04/30 11:35:37;;;;;;;3.47;2.00;;;13.60;61.50;;;;;;5014087;28;20195;-82
2022/04/30 11:38:10;;;;;;;3.40;1.70;;;13.70;61.60;;;;;;4997673;28;20054;-83
2022/04/30 11:40:42;;;;;;;3.50;1.50;;;13.80;61.40;;;;;;4997859;28;20506;-83
2022/04/30 11:43:10;;;;;;;4.45;1.67;;;13.90;61.30;;;;;;5026394;28;20033;-82
2022/04/30 11:45:43;;;;;;;4.18;1.83;;;14.00;61.10;;;;;;4995051;28;20112;-82
2022/04/30 11:48:10;;;;;;;4.50;2.17;;;14.10;60.90;;;;;;5000842;28;20116;-82
2022/04/30 11:50:39;;;;;;;3.45;1.55;;;14.10;60.10;;;;;;4985380;28;20088;-82
2022/04/30 11:53:09;;;;;;;4.13;1.42;;;14.10;60.30;;;;;;5017621;28;20037;-82
2022/04/30 11:55:38;;;;;;;4.22;1.50;;;14.30;60.30;;;;;;5001098;28;20144;-86
2022/04/30 11:58:06;;;;;;;3.03;1.73;;;14.60;60.20;;;;;;5017508;28;20577;-84
2022/04/30 12:00:53;;;;;;;2.65;1.00;;;14.70;59.80;;;;;;5022632;28;20045;-84
2022/04/30 12:03:27;;;;;;;3.28;1.05;;;14.90;59.60;;;;;;5000579;28;20092;-83
2022/04/30 12:05:57;;;;;;;1.67;0.90;;;15.20;59.30;;;;;;5010874;28;20054;-83
2022/04/30 12:08:28;;;;;;;3.05;1.23;;;15.30;59.20;;;;;;5000652;28;20141;-83
2022/04/30 12:10:56;;;;;;;2.40;1.00;;;15.40;59.10;;;;;;5017034;28;20045;-83
2022/04/30 12:13:26;;;;;;;2.00;1.00;;;15.50;59.10;;;;;;5017166;28;20053;-84
2022/04/30 12:16:09;;;;;;;4.20;1.50;;;15.60;58.70;;;;;;5017489;28;20048;-85
2022/04/30 12:26:55;;;;;;;2.05;1.25;;;15.60;58.10;;;;;;5016130;28;20112;-84
2022/04/30 12:29:24;;;;;;;1.98;0.90;;;15.70;58.10;;;;;;4999915;28;20044;-84
2022/04/30 12:31:52;;;;;;;2.90;1.20;;;15.80;58.00;;;;;;5016983;28;20065;-83
2022/04/30 12:34:20;;;;;;;3.40;1.10;;;15.90;57.80;;;;;;5000434;28;20046;-83
2022/04/30 12:36:56;;;;;;;2.70;1.50;;;16.00;57.70;;;;;;4968679;28;20056;-83
2022/04/30 12:39:24;;;;;;;1.98;1.10;;;15.90;57.60;;;;;;5016310;28;20525;-83
2022/04/30 12:41:53;;;;;;;2.70;1.10;;;16.00;57.70;;;;;;5000344;28;20482;-84
2022/04/30 12:44:22;;;;;;;3.50;1.20;;;16.00;57.10;;;;;;5016116;28;20081;-83
2022/04/30 12:46:49;;;;;;;3.58;1.70;;;15.90;57.20;;;;;;5000430;28;20145;-83
2022/04/30 12:49:20;;;;;;;5.30;1.77;;;15.80;56.60;;;;;;5000252;28;20095;-84
2022/04/30 12:51:49;;;;;;;3.17;1.27;;;15.50;56.40;;;;;;5000051;28;20037;-82
2022/04/30 12:54:16;;;;;;;3.13;1.42;;;15.40;56.80;;;;;;5016346;28;20148;-85
2022/04/30 12:56:45;;;;;;;2.47;1.27;;;15.50;56.60;;;;;;4999294;28;20489;-83
2022/04/30 12:59:15;;;;;;;3.78;1.70;;;15.40;56.60;;;;;;4999416;28;20045;-83
2022/04/30 13:01:43;;;;;;;2.28;1.27;;;15.40;56.20;;;;;;4996293;28;20132;-85
2022/04/30 13:04:18;;;;;;;3.65;1.45;;;15.40;55.80;;;;;;4990179;28;20073;-85
2022/04/30 13:06:46;;;;;;;2.70;1.30;;;15.30;55.50;;;;;;4975497;28;20046;-86
2022/04/30 13:14:45;;;;;;;2.17;1.20;;;15.20;56.20;;;;;;5030476;28;20041;-83
2022/04/30 13:17:12;;;;;;;2.15;1.05;;;15.20;56.10;;;;;;4980221;28;20510;-89
2022/04/30 13:19:44;;;;;;;1.92;0.75;;;15.30;56.10;;;;;;5000710;28;20067;-88
2022/04/30 13:22:13;;;;;;;1.35;0.73;;;15.30;56.00;;;;;;4984869;28;20049;-85
2022/04/30 13:24:40;;;;;;;1.08;0.63;;;15.30;56.00;;;;;;4999770;28;20108;-84
2022/04/30 13:27:07;;;;;;;1.83;0.60;;;15.30;55.90;;;;;;4999974;28;20073;-86
2022/04/30 13:29:34;;;;;;;1.92;0.70;;;15.20;55.70;;;;;;4999170;28;20043;-84
2022/04/30 13:32:02;;;;;;;1.95;0.85;;;15.20;55.50;;;;;;4983505;28;20056;-83
2022/04/30 13:34:29;;;;;;;1.23;0.68;;;15.30;55.40;;;;;;4977484;28;20132;-83
2022/04/30 13:36:56;;;;;;;4.38;0.90;;;15.20;55.30;;;;;;4990578;28;20052;-83
2022/04/30 13:39:23;;;;;;;2.55;1.08;;;15.20;55.40;;;;;;5015056;28;20493;-82
2022/04/30 13:41:50;;;;;;;1.27;0.60;;;15.10;55.50;;;;;;4996260;28;20077;-82
2022/04/30 13:44:17;;;;;;;1.92;0.70;;;15.10;56.20;;;;;;4977366;28;20138;-82
2022/04/30 13:46:44;;;;;;;2.83;0.60;;;15.00;55.70;;;;;;4995574;28;20038;-83
2022/04/30 13:49:19;;;;;;;1.60;0.50;;;15.00;55.80;;;;;;4985323;28;20490;-84
2022/04/30 13:51:46;;;;;;;1.60;0.60;;;14.90;55.80;;;;;;4985127;28;20041;-85
2022/04/30 13:54:13;;;;;;;2.03;0.63;;;14.80;55.80;;;;;;4974775;28;20045;-84
2022/04/30 13:56:40;;;;;;;1.85;0.60;;;14.70;55.90;;;;;;5002628;28;20037;-83
2022/04/30 13:59:08;;;;;;;1.42;0.68;;;14.70;56.10;;;;;;5015275;28;20132;-87
2022/04/30 14:01:35;;;;;;;1.42;0.50;;;14.60;56.10;;;;;;4995004;28;20050;-81
2022/04/30 14:04:02;;;;;;;3.42;0.55;;;14.60;56.10;;;;;;4995468;28;20140;-81